General Aviation Weather

Text Reports

Enter one or more of the following location identifiers separated by a space:

Zip Code, Four-Character ICAO or Three-Character IATA airport codes.

METAR - Aviation Routine Weather Report
KSTE - Stevens Point, Wisconsin
Updated at 2:35 AM GMT on March 27, 2015 (9:35 PM CDT):
METAR KSTE 270235Z AUTO 02008KT 10SM CLR M06/M13 A3012 RMK AO2 T10611135
TAF - Terminal Area Forecast
KSTE - Stevens Point, Wisconsin
Updated at 2:35 AM GMT on March 27, 2015 (9:35 PM CDT):
No TAF is currently available for this location.
Decoded:
No decoded TAF is available.
PIREP - Pilot Weather Report
KSTE - Stevens Point, Wisconsin
Updated at 2:35 AM GMT on March 27, 2015 (9:35 PM CDT):
No PIREP is currently available for this location.
AIRMET - Airmens Meteorological Information
KSTE - Stevens Point, Wisconsin
Updated at 2:35 AM GMT on March 27, 2015 (9:35 PM CDT):
No AIRMET is currently available for this location.
SIGMET - Significant Meteorological Information
KSTE - Stevens Point, Wisconsin
Updated at 2:35 AM GMT on March 27, 2015 (9:35 PM CDT):
No SIGMET is currently available for this location.
NOTAM - Notice to Airmen
KSTE - Stevens Point, Wisconsin
Updated at 2:35 AM GMT on March 27, 2015 (9:35 PM CDT):
No NOTAM is currently available for this location.
Forecast Area
KSTE - Stevens Point, Wisconsin
Updated at 2:35 AM GMT on March 27, 2015 (9:35 PM CDT):
No NOTAM is currently available for this location.
Aviation Weather Maps